sensor_id;sensor_type;location;lat;lon;timestamp;pressure;altitude;pressure_sealevel;temperature;humidity
15229;BME280;7717;47.792;12.076;2023-04-28T00:01:41;96186.19;;;7.09;100.00
15229;BME280;7717;47.792;12.076;2023-04-28T00:04:06;96183.69;;;7.16;100.00
15229;BME280;7717;47.792;12.076;2023-04-28T00:06:32;96182.47;;;6.76;100.00
15229;BME280;7717;47.792;12.076;2023-04-28T00:08:57;96187.50;;;6.71;100.00
15229;BME280;7717;47.792;12.076;2023-04-28T00:11:22;96171.44;;;6.72;100.00
15229;BME280;7717;47.792;12.076;2023-04-28T00:13:48;96181.75;;;6.88;100.00
15229;BME280;7717;47.792;12.076;2023-04-28T00:16:13;96174.81;;;6.74;100.00
15229;BME280;7717;47.792;12.076;2023-04-28T00:18:39;96178.25;;;6.79;100.00
15229;BME280;7717;47.792;12.076;2023-04-28T00:21:04;96175.63;;;6.72;100.00
15229;BME280;7717;47.792;12.076;2023-04-28T00:23:30;96178.09;;;6.64;100.00
15229;BME280;7717;47.792;12.076;2023-04-28T00:25:55;96175.50;;;6.59;100.00
15229;BME280;7717;47.792;12.076;2023-04-28T00:28:22;96178.06;;;6.59;100.00
15229;BME280;7717;47.792;12.076;2023-04-28T00:30:47;96163.66;;;6.58;100.00
15229;BME280;7717;47.792;12.076;2023-04-28T00:33:12;96168.75;;;6.60;100.00
15229;BME280;7717;47.792;12.076;2023-04-28T00:35:39;96165.28;;;6.55;100.00
15229;BME280;7717;47.792;12.076;2023-04-28T00:38:05;96173.81;;;6.58;100.00
15229;BME280;7717;47.792;12.076;2023-04-28T00:40:37;96166.38;;;6.75;100.00
15229;BME280;7717;47.792;12.076;2023-04-28T00:43:03;96177.25;;;6.63;100.00
15229;BME280;7717;47.792;12.076;2023-04-28T00:45:29;96178.25;;;6.79;100.00
15229;BME280;7717;47.792;12.076;2023-04-28T00:47:55;96168.91;;;6.74;100.00
15229;BME280;7717;47.792;12.076;2023-04-28T00:50:25;96158.69;;;6.71;100.00
15229;BME280;7717;47.792;12.076;2023-04-28T00:52:51;96169.66;;;6.66;100.00
15229;BME280;7717;47.792;12.076;2023-04-28T00:55:17;96165.47;;;6.72;100.00
15229;BME280;7717;47.792;12.076;2023-04-28T00:57:43;96157.00;;;6.73;100.00
15229;BME280;7717;47.792;12.076;2023-04-28T01:00:09;96152.75;;;6.73;100.00
15229;BME280;7717;47.792;12.076;2023-04-28T01:02:35;96151.84;;;6.65;100.00
15229;BME280;7717;47.792;12.076;2023-04-28T01:05:01;96146.84;;;6.76;100.00
15229;BME280;7717;47.792;12.076;2023-04-28T01:07:27;96140.03;;;6.72;100.00
15229;BME280;7717;47.792;12.076;2023-04-28T01:09:53;96137.59;;;6.82;100.00
15229;BME280;7717;47.792;12.076;2023-04-28T01:12:18;96150.44;;;6.96;100.00
15229;BME280;7717;47.792;12.076;2023-04-28T01:14:44;96136.03;;;6.98;100.00
15229;BME280;7717;47.792;12.076;2023-04-28T01:17:10;96136.00;;;6.97;100.00
15229;BME280;7717;47.792;12.076;2023-04-28T01:19:36;96127.53;;;6.96;100.00
15229;BME280;7717;47.792;12.076;2023-04-28T01:22:01;96125.84;;;7.00;100.00
15229;BME280;7717;47.792;12.076;2023-04-28T01:24:27;96143.72;;;7.05;100.00
15229;BME280;7717;47.792;12.076;2023-04-28T01:26:52;96137.72;;;6.98;100.00
15229;BME280;7717;47.792;12.076;2023-04-28T01:29:18;96134.28;;;6.90;100.00
15229;BME280;7717;47.792;12.076;2023-04-28T01:31:43;96139.41;;;6.96;100.00
15229;BME280;7717;47.792;12.076;2023-04-28T01:34:08;96139.38;;;6.93;100.00
15229;BME280;7717;47.792;12.076;2023-04-28T01:36:34;96138.50;;;6.91;100.00
15229;BME280;7717;47.792;12.076;2023-04-28T01:38:59;96123.09;;;6.71;100.00
15229;BME280;7717;47.792;12.076;2023-04-28T01:41:24;96126.53;;;6.77;100.00
15229;BME280;7717;47.792;12.076;2023-04-28T01:43:50;96113.78;;;6.76;100.00
15229;BME280;7717;47.792;12.076;2023-04-28T01:46:16;96118.94;;;6.80;100.00
15229;BME280;7717;47.792;12.076;2023-04-28T01:48:41;96125.75;;;6.83;100.00
15229;BME280;7717;47.792;12.076;2023-04-28T01:51:07;96123.28;;;6.95;100.00
15229;BME280;7717;47.792;12.076;2023-04-28T01:53:32;96113.94;;;6.93;100.00
15229;BME280;7717;47.792;12.076;2023-04-28T01:55:58;96114.13;;;7.14;100.00
15229;BME280;7717;47.792;12.076;2023-04-28T01:58:24;96103.94;;;7.14;100.00
15229;BME280;7717;47.792;12.076;2023-04-28T02:00:49;96113.34;;;7.26;100.00
15229;BME280;7717;47.792;12.076;2023-04-28T02:03:15;96109.13;;;7.27;100.00
15229;BME280;7717;47.792;12.076;2023-04-28T02:05:40;96108.28;;;7.29;100.00
15229;BME280;7717;47.792;12.076;2023-04-28T02:08:05;96108.31;;;7.37;100.00
15229;BME280;7717;47.792;12.076;2023-04-28T02:10:31;96109.25;;;7.50;100.00
15229;BME280;7717;47.792;12.076;2023-04-28T02:12:56;96101.56;;;7.44;100.00
15229;BME280;7717;47.792;12.076;2023-04-28T02:15:22;96112.63;;;7.44;100.00
15229;BME280;7717;47.792;12.076;2023-04-28T02:17:47;96100.78;;;7.52;100.00
15229;BME280;7717;47.792;12.076;2023-04-28T02:20:13;96123.00;;;7.81;100.00
15229;BME280;7717;47.792;12.076;2023-04-28T02:22:39;96100.00;;;7.63;100.00
15229;BME280;7717;47.792;12.076;2023-04-28T02:25:05;96142.50;;;7.73;100.00
15229;BME280;7717;47.792;12.076;2023-04-28T02:27:30;96115.31;;;7.69;100.00
15229;BME280;7717;47.792;12.076;2023-04-28T02:29:56;96123.03;;;7.86;100.00
15229;BME280;7717;47.792;12.076;2023-04-28T02:32:21;96099.28;;;7.91;100.00
15229;BME280;7717;47.792;12.076;2023-04-28T02:34:52;96095.06;;;8.00;100.00
15229;BME280;7717;47.792;12.076;2023-04-28T02:37:17;96100.16;;;7.97;100.00
15229;BME280;7717;47.792;12.076;2023-04-28T02:39:42;96114.66;;;8.11;100.00
15229;BME280;7717;47.792;12.076;2023-04-28T02:42:08;96103.63;;;8.08;100.00
15229;BME280;7717;47.792;12.076;2023-04-28T02:44:33;96100.25;;;8.18;100.00
15229;BME280;7717;47.792;12.076;2023-04-28T02:46:59;96109.56;;;8.08;100.00
15229;BME280;7717;47.792;12.076;2023-04-28T02:49:25;96108.72;;;8.08;100.00
15229;BME280;7717;47.792;12.076;2023-04-28T02:51:51;96102.78;;;8.18;100.00
15229;BME280;7717;47.792;12.076;2023-04-28T02:54:16;96109.66;;;8.35;100.00
15229;BME280;7717;47.792;12.076;2023-04-28T02:56:51;96102.84;;;8.40;100.00
15229;BME280;7717;47.792;12.076;2023-04-28T02:59:16;96092.72;;;8.52;100.00
15229;BME280;7717;47.792;12.076;2023-04-28T03:01:41;96073.16;;;8.53;100.00
15229;BME280;7717;47.792;12.076;2023-04-28T03:04:07;96101.22;;;8.57;100.00
15229;BME280;7717;47.792;12.076;2023-04-28T03:06:32;96092.75;;;8.74;100.00
15229;BME280;7717;47.792;12.076;2023-04-28T03:08:58;96096.13;;;8.60;100.00
15229;BME280;7717;47.792;12.076;2023-04-28T03:11:23;96096.97;;;8.73;100.00
15229;BME280;7717;47.792;12.076;2023-04-28T03:13:48;96102.09;;;8.76;100.00
15229;BME280;7717;47.792;12.076;2023-04-28T03:16:13;96084.25;;;8.98;100.00
15229;BME280;7717;47.792;12.076;2023-04-28T03:18:39;96091.00;;;9.53;100.00
15229;BME280;7717;47.792;12.076;2023-04-28T03:21:04;96082.38;;;9.89;100.00
15229;BME280;7717;47.792;12.076;2023-04-28T03:23:30;96073.94;;;9.67;100.00
15229;BME280;7717;47.792;12.076;2023-04-28T03:25:55;96063.72;;;9.64;100.00
15229;BME280;7717;47.792;12.076;2023-04-28T03:28:21;96064.59;;;9.52;100.00
15229;BME280;7717;47.792;12.076;2023-04-28T03:30:46;96070.63;;;9.05;100.00
15229;BME280;7717;47.792;12.076;2023-04-28T03:33:12;96066.38;;;8.90;100.00
15229;BME280;7717;47.792;12.076;2023-04-28T03:35:37;96052.69;;;9.36;100.00
15229;BME280;7717;47.792;12.076;2023-04-28T03:38:02;96058.53;;;9.78;100.00
15229;BME280;7717;47.792;12.076;2023-04-28T03:40:28;96046.44;;;10.16;100.00
15229;BME280;7717;47.792;12.076;2023-04-28T03:42:53;96047.25;;;10.32;100.00
15229;BME280;7717;47.792;12.076;2023-04-28T03:45:19;96053.97;;;10.48;100.00
15229;BME280;7717;47.792;12.076;2023-04-28T03:47:44;96048.91;;;10.40;100.00
15229;BME280;7717;47.792;12.076;2023-04-28T03:50:09;96040.16;;;10.75;100.00
15229;BME280;7717;47.792;12.076;2023-04-28T03:52:35;96031.53;;;10.84;100.00
15229;BME280;7717;47.792;12.076;2023-04-28T03:55:00;96032.28;;;10.94;100.00
15229;BME280;7717;47.792;12.076;2023-04-28T03:57:25;96037.38;;;11.00;100.00
15229;BME280;7717;47.792;12.076;2023-04-28T03:59:51;96033.19;;;10.93;100.00
15229;BME280;7717;47.792;12.076;2023-04-28T04:02:16;96026.03;;;11.27;100.00
15229;BME280;7717;47.792;12.076;2023-04-28T04:04:42;96028.72;;;11.15;100.00
15229;BME280;7717;47.792;12.076;2023-04-28T04:07:07;96032.13;;;11.12;100.00
15229;BME280;7717;47.792;12.076;2023-04-28T04:09:33;96049.50;;;10.76;100.00
15229;BME280;7717;47.792;12.076;2023-04-28T04:11:58;96067.00;;;10.00;100.00
15229;BME280;7717;47.792;12.076;2023-04-28T04:14:25;96085.84;;;9.65;100.00
15229;BME280;7717;47.792;12.076;2023-04-28T04:16:50;96085.06;;;9.25;100.00
15229;BME280;7717;47.792;12.076;2023-04-28T04:19:16;96068.91;;;9.23;100.00
15229;BME280;7717;47.792;12.076;2023-04-28T04:21:42;96072.31;;;9.23;100.00
15229;BME280;7717;47.792;12.076;2023-04-28T04:24:07;96072.31;;;9.09;100.00
15229;BME280;7717;47.792;12.076;2023-04-28T04:26:33;96061.25;;;9.07;100.00
15229;BME280;7717;47.792;12.076;2023-04-28T04:28:58;96059.59;;;8.83;100.00
15229;BME280;7717;47.792;12.076;2023-04-28T04:31:23;96063.81;;;9.06;100.00
15229;BME280;7717;47.792;12.076;2023-04-28T04:33:49;96058.72;;;9.07;100.00
15229;BME280;7717;47.792;12.076;2023-04-28T04:36:15;96056.13;;;9.40;100.00
15229;BME280;7717;47.792;12.076;2023-04-28T04:38:40;96056.94;;;9.49;100.00
15229;BME280;7717;47.792;12.076;2023-04-28T04:41:05;96069.75;;;9.29;100.00
15229;BME280;7717;47.792;12.076;2023-04-28T04:43:31;96060.34;;;9.39;100.00
15229;BME280;7717;47.792;12.076;2023-04-28T04:45:56;96049.28;;;9.48;100.00
15229;BME280;7717;47.792;12.076;2023-04-28T04:48:21;96060.34;;;9.51;100.00
15229;BME280;7717;47.792;12.076;2023-04-28T04:50:47;96048.44;;;9.49;100.00
15229;BME280;7717;47.792;12.076;2023-04-28T04:53:13;96046.69;;;9.62;100.00
15229;BME280;7717;47.792;12.076;2023-04-28T04:55:38;96051.78;;;9.66;100.00
15229;BME280;7717;47.792;12.076;2023-04-28T04:58:04;96052.63;;;9.68;100.00
15229;BME280;7717;47.792;12.076;2023-04-28T05:00:29;96052.63;;;9.62;100.00
15229;BME280;7717;47.792;12.076;2023-04-28T05:02:55;96056.91;;;9.60;100.00
15229;BME280;7717;47.792;12.076;2023-04-28T05:05:20;96049.22;;;9.72;100.00
15229;BME280;7717;47.792;12.076;2023-04-28T05:07:46;96034.69;;;9.82;100.00
15229;BME280;7717;47.792;12.076;2023-04-28T05:10:11;96043.16;;;9.87;100.00
15229;BME280;7717;47.792;12.076;2023-04-28T05:12:37;96049.06;;;10.11;100.00
15229;BME280;7717;47.792;12.076;2023-04-28T05:15:04;96051.63;;;10.06;100.00
15229;BME280;7717;47.792;12.076;2023-04-28T05:17:31;96036.34;;;9.97;100.00
15229;BME280;7717;47.792;12.076;2023-04-28T05:19:56;96047.41;;;9.95;100.00
15229;BME280;7717;47.792;12.076;2023-04-28T05:22:21;96048.31;;;9.80;100.00
15229;BME280;7717;47.792;12.076;2023-04-28T05:24:47;96056.84;;;9.80;100.00
15229;BME280;7717;47.792;12.076;2023-04-28T05:27:12;96057.69;;;9.78;100.00
15229;BME280;7717;47.792;12.076;2023-04-28T05:29:38;96056.88;;;9.72;100.00
15229;BME280;7717;47.792;12.076;2023-04-28T05:32:03;96061.97;;;9.79;100.00
15229;BME280;7717;47.792;12.076;2023-04-28T05:34:29;96055.13;;;9.87;100.00
15229;BME280;7717;47.792;12.076;2023-04-28T05:36:54;96051.63;;;10.06;100.00
15229;BME280;7717;47.792;12.076;2023-04-28T05:39:20;96012.38;;;10.12;100.00
15229;BME280;7717;47.792;12.076;2023-04-28T05:41:45;96042.06;;;10.46;100.00
15229;BME280;7717;47.792;12.076;2023-04-28T05:44:10;96039.56;;;10.39;100.00
15229;BME280;7717;47.792;12.076;2023-04-28T05:46:36;96054.91;;;10.39;100.00
15229;BME280;7717;47.792;12.076;2023-04-28T05:49:01;96063.41;;;10.41;100.00
15229;BME280;7717;47.792;12.076;2023-04-28T05:51:27;96055.97;;;9.81;100.00
15229;BME280;7717;47.792;12.076;2023-04-28T05:53:52;96060.22;;;9.88;100.00
15229;BME280;7717;47.792;12.076;2023-04-28T05:56:18;96068.56;;;10.27;100.00
15229;BME280;7717;47.792;12.076;2023-04-28T05:58:44;96065.22;;;10.18;100.00
15229;BME280;7717;47.792;12.076;2023-04-28T06:01:09;96066.91;;;10.17;100.00
15229;BME280;7717;47.792;12.076;2023-04-28T06:03:35;96056.53;;;10.47;100.00
15229;BME280;7717;47.792;12.076;2023-04-28T06:06:01;96057.22;;;10.70;100.00
15229;BME280;7717;47.792;12.076;2023-04-28T06:08:29;96060.63;;;10.77;100.00
15229;BME280;7717;47.792;12.076;2023-04-28T06:10:55;96066.69;;;10.63;100.00
15229;BME280;7717;47.792;12.076;2023-04-28T06:13:20;96066.66;;;10.68;100.00
15229;BME280;7717;47.792;12.076;2023-04-28T06:15:45;96076.03;;;10.71;100.00
15229;BME280;7717;47.792;12.076;2023-04-28T06:18:11;96083.66;;;10.75;100.00
15229;BME280;7717;47.792;12.076;2023-04-28T06:20:36;96080.31;;;10.61;100.00
15229;BME280;7717;47.792;12.076;2023-04-28T06:23:02;96092.38;;;10.47;100.00
15229;BME280;7717;47.792;12.076;2023-04-28T06:25:28;96100.03;;;10.50;100.00
15229;BME280;7717;47.792;12.076;2023-04-28T06:27:53;96106.94;;;10.37;100.00
15229;BME280;7717;47.792;12.076;2023-04-28T06:30:20;96094.97;;;10.30;100.00
15229;BME280;7717;47.792;12.076;2023-04-28T06:32:46;96103.41;;;10.55;100.00
15229;BME280;7717;47.792;12.076;2023-04-28T06:35:12;96095.66;;;10.64;100.00
15229;BME280;7717;47.792;12.076;2023-04-28T06:37:38;96111.00;;;10.67;100.00
15229;BME280;7717;47.792;12.076;2023-04-28T06:40:03;96100.78;;;10.67;100.00
15229;BME280;7717;47.792;12.076;2023-04-28T06:42:32;96115.31;;;10.62;100.00
15229;BME280;7717;47.792;12.076;2023-04-28T06:44:58;96112.75;;;10.65;100.00
15229;BME280;7717;47.792;12.076;2023-04-28T06:47:23;96100.56;;;10.99;100.00
15229;BME280;7717;47.792;12.076;2023-04-28T06:49:48;96105.53;;;11.16;100.00
15229;BME280;7717;47.792;12.076;2023-04-28T06:52:14;96090.88;;;11.34;100.00
15229;BME280;7717;47.792;12.076;2023-04-28T06:54:40;96087.16;;;11.67;100.00
15229;BME280;7717;47.792;12.076;2023-04-28T06:57:05;96097.19;;;11.84;100.00
15229;BME280;7717;47.792;12.076;2023-04-28T06:59:31;96085.97;;;11.98;100.00
15229;BME280;7717;47.792;12.076;2023-04-28T07:01:56;96091.69;;;12.20;100.00
15229;BME280;7717;47.792;12.076;2023-04-28T07:04:22;96084.63;;;12.36;100.00
15229;BME280;7717;47.792;12.076;2023-04-28T07:06:47;96092.44;;;12.28;100.00
15229;BME280;7717;47.792;12.076;2023-04-28T07:09:13;96078.00;;;12.21;100.00
15229;BME280;7717;47.792;12.076;2023-04-28T07:11:40;96093.72;;;11.90;100.00
15229;BME280;7717;47.792;12.076;2023-04-28T07:14:05;96082.81;;;11.71;100.00
15229;BME280;7717;47.792;12.076;2023-04-28T07:16:32;96080.94;;;11.85;100.00
15229;BME280;7717;47.792;12.076;2023-04-28T07:19:00;96081.09;;;11.73;100.00
15229;BME280;7717;47.792;12.076;2023-04-28T07:21:26;96070.03;;;11.68;100.00
15229;BME280;7717;47.792;12.076;2023-04-28T07:23:52;96074.28;;;11.72;100.00
15229;BME280;7717;47.792;12.076;2023-04-28T07:26:21;96064.56;;;12.02;100.00
15229;BME280;7717;47.792;12.076;2023-04-28T07:28:46;96055.94;;;12.06;100.00
15229;BME280;7717;47.792;12.076;2023-04-28T07:31:12;96072.84;;;12.24;100.00
15229;BME280;7717;47.792;12.076;2023-04-28T07:33:37;96058.16;;;12.34;100.00
15229;BME280;7717;47.792;12.076;2023-04-28T07:36:03;96061.88;;;12.72;100.00
15229;BME280;7717;47.792;12.076;2023-04-28T07:38:28;96055.13;;;13.21;100.00
15229;BME280;7717;47.792;12.076;2023-04-28T07:40:54;96043.78;;;13.31;100.00
15229;BME280;7717;47.792;12.076;2023-04-28T07:43:19;96046.75;;;13.58;100.00
15229;BME280;7717;47.792;12.076;2023-04-28T07:45:45;96064.56;;;13.68;100.00
15229;BME280;7717;47.792;12.076;2023-04-28T07:48:13;96058.91;;;13.51;100.00
15229;BME280;7717;47.792;12.076;2023-04-28T07:50:38;96053.50;;;13.65;100.00
15229;BME280;7717;47.792;12.076;2023-04-28T07:53:04;96049.50;;;13.94;100.00
15229;BME280;7717;47.792;12.076;2023-04-28T07:55:29;96054.25;;;13.70;100.00
15229;BME280;7717;47.792;12.076;2023-04-28T07:57:55;96043.97;;;13.70;100.00
15229;BME280;7717;47.792;12.076;2023-04-28T08:00:23;96041.72;;;13.52;100.00
15229;BME280;7717;47.792;12.076;2023-04-28T08:02:48;96037.47;;;13.52;100.00
15229;BME280;7717;47.792;12.076;2023-04-28T08:05:15;96032.84;;;13.70;100.00
15229;BME280;7717;47.792;12.076;2023-04-28T08:07:41;96025.53;;;14.32;100.00
15229;BME280;7717;47.792;12.076;2023-04-28T08:10:10;96028.97;;;14.31;100.00
15229;BME280;7717;47.792;12.076;2023-04-28T08:12:37;96015.91;;;15.14;100.00
15229;BME280;7717;47.792;12.076;2023-04-28T08:15:02;96010.06;;;15.07;100.00
15229;BME280;7717;47.792;12.076;2023-04-28T08:17:28;96016.25;;;14.64;100.00
15229;BME280;7717;47.792;12.076;2023-04-28T08:19:53;96011.44;;;14.11;100.00
15229;BME280;7717;47.792;12.076;2023-04-28T08:22:19;96020.25;;;14.38;100.00
15229;BME280;7717;47.792;12.076;2023-04-28T08:24:44;96018.88;;;14.22;100.00
15229;BME280;7717;47.792;12.076;2023-04-28T08:27:10;96025.94;;;14.14;100.00
15229;BME280;7717;47.792;12.076;2023-04-28T08:29:35;96020.22;;;14.01;100.00
15229;BME280;7717;47.792;12.076;2023-04-28T08:32:01;96023.78;;;14.34;100.00
15229;BME280;7717;47.792;12.076;2023-04-28T08:34:27;96016.94;;;14.33;100.00
15229;BME280;7717;47.792;12.076;2023-04-28T08:36:52;96019.50;;;13.94;100.00
15229;BME280;7717;47.792;12.076;2023-04-28T08:39:18;96023.28;;;13.75;100.00
15229;BME280;7717;47.792;12.076;2023-04-28T08:41:44;96024.41;;;14.05;100.00
15229;BME280;7717;47.792;12.076;2023-04-28T08:44:13;96019.38;;;14.00;100.00
15229;BME280;7717;47.792;12.076;2023-04-28T08:46:40;96021.44;;;13.81;100.00
15229;BME280;7717;47.792;12.076;2023-04-28T08:49:15;96028.97;;;13.91;100.00
15229;BME280;7717;47.792;12.076;2023-04-28T08:51:45;96039.50;;;13.35;100.00
15229;BME280;7717;47.792;12.076;2023-04-28T08:54:14;96040.09;;;13.49;100.00
15229;BME280;7717;47.792;12.076;2023-04-28T08:56:41;96035.06;;;13.43;100.00
15229;BME280;7717;47.792;12.076;2023-04-28T08:59:09;96029.44;;;13.19;100.00
15229;BME280;7717;47.792;12.076;2023-04-28T09:01:36;96038.28;;;13.54;100.00
15229;BME280;7717;47.792;12.076;2023-04-28T09:04:02;96028.03;;;13.51;100.00
15229;BME280;7717;47.792;12.076;2023-04-28T09:06:32;96044.66;;;13.31;100.00
15229;BME280;7717;47.792;12.076;2023-04-28T09:09:25;96028.59;;;13.19;100.00
15229;BME280;7717;47.792;12.076;2023-04-28T09:14:17;96034.22;;;12.89;100.00
15229;BME280;7717;47.792;12.076;2023-04-28T09:16:42;96026.88;;;12.68;100.00
15229;BME280;7717;47.792;12.076;2023-04-28T09:19:08;96035.84;;;12.93;100.00
15229;BME280;7717;47.792;12.076;2023-04-28T09:21:54;96027.84;;;13.12;100.00
15229;BME280;7717;47.792;12.076;2023-04-28T09:24:40;96034.47;;;12.74;100.00
15229;BME280;7717;47.792;12.076;2023-04-28T09:27:07;96025.47;;;13.01;100.00
15229;BME280;7717;47.792;12.076;2023-04-28T09:29:36;96034.34;;;12.83;100.00
15229;BME280;7717;47.792;12.076;2023-04-28T09:32:12;96023.34;;;12.73;100.00
15229;BME280;7717;47.792;12.076;2023-04-28T09:37:22;96019.50;;;12.99;100.00
15229;BME280;7717;47.792;12.076;2023-04-28T09:39:52;96011.25;;;12.80;100.00
15229;BME280;7717;47.792;12.076;2023-04-28T09:42:37;96012.38;;;12.62;100.00
15229;BME280;7717;47.792;12.076;2023-04-28T09:45:10;96009.47;;;12.85;100.00
15229;BME280;7717;47.792;12.076;2023-04-28T09:47:41;96010.72;;;12.58;100.00
15229;BME280;7717;47.792;12.076;2023-04-28T09:50:08;96014.78;;;12.73;100.00
15229;BME280;7717;47.792;12.076;2023-04-28T09:52:36;96006.28;;;12.69;100.00
15229;BME280;7717;47.792;12.076;2023-04-28T09:55:04;96004.97;;;12.96;100.00
15229;BME280;7717;47.792;12.076;2023-04-28T09:57:31;96000.41;;;12.61;100.00
15229;BME280;7717;47.792;12.076;2023-04-28T09:59:57;96006.47;;;12.58;100.00
15229;BME280;7717;47.792;12.076;2023-04-28T10:02:23;96005.06;;;12.92;100.00
15229;BME280;7717;47.792;12.076;2023-04-28T10:04:52;96003.03;;;13.09;100.00
15229;BME280;7717;47.792;12.076;2023-04-28T10:07:20;95982.78;;;12.94;100.00
15229;BME280;7717;47.792;12.076;2023-04-28T10:09:46;95991.94;;;13.09;100.00
15229;BME280;7717;47.792;12.076;2023-04-28T10:12:15;95994.28;;;12.70;100.00
15229;BME280;7717;47.792;12.076;2023-04-28T10:14:41;95999.38;;;12.73;100.00
15229;BME280;7717;47.792;12.076;2023-04-28T10:17:07;95983.47;;;13.04;100.00
15229;BME280;7717;47.792;12.076;2023-04-28T10:19:33;95983.94;;;12.76;100.00
15229;BME280;7717;47.792;12.076;2023-04-28T10:27:41;95985.03;;;13.11;100.00
15229;BME280;7717;47.792;12.076;2023-04-28T10:30:14;95985.31;;;12.95;100.00
15229;BME280;7717;47.792;12.076;2023-04-28T10:32:41;95987.91;;;12.94;100.00
15229;BME280;7717;47.792;12.076;2023-04-28T10:38:07;95977.50;;;13.00;100.00
15229;BME280;7717;47.792;12.076;2023-04-28T10:42:58;95975.69;;;13.55;100.00
15229;BME280;7717;47.792;12.076;2023-04-28T10:48:14;95975.06;;;13.42;100.00
15229;BME280;7717;47.792;12.076;2023-04-28T10:56:12;95971.50;;;13.01;100.00
15229;BME280;7717;47.792;12.076;2023-04-28T10:58:43;95950.09;;;13.02;100.00
15229;BME280;7717;47.792;12.076;2023-04-28T11:03:52;95970.97;;;13.30;100.00
15229;BME280;7717;47.792;12.076;2023-04-28T11:06:36;95970.50;;;13.10;100.00
15229;BME280;7717;47.792;12.076;2023-04-28T11:17:00;95981.72;;;13.53;100.00
15229;BME280;7717;47.792;12.076;2023-04-28T11:21:54;95978.31;;;13.52;100.00
15229;BME280;7717;47.792;12.076;2023-04-28T11:24:20;95978.59;;;13.37;100.00
15229;BME280;7717;47.792;12.076;2023-04-28T11:26:46;95982.94;;;13.35;100.00
15229;BME280;7717;47.792;12.076;2023-04-28T11:29:12;95958.09;;;13.34;100.00
15229;BME280;7717;47.792;12.076;2023-04-28T11:31:39;95978.59;;;13.38;100.00
15229;BME280;7717;47.792;12.076;2023-04-28T11:34:09;95972.19;;;13.58;100.00
15229;BME280;7717;47.792;12.076;2023-04-28T11:36:40;95959.06;;;13.26;100.00
15229;BME280;7717;47.792;12.076;2023-04-28T11:39:11;95957.25;;;13.35;100.00
15229;BME280;7717;47.792;12.076;2023-04-28T11:41:41;95970.44;;;13.13;100.00
15229;BME280;7717;47.792;12.076;2023-04-28T11:44:15;95969.09;;;12.92;100.00
15229;BME280;7717;47.792;12.076;2023-04-28T11:46:48;95970.16;;;12.80;100.00
15229;BME280;7717;47.792;12.076;2023-04-28T11:49:17;95967.19;;;13.02;100.00
15229;BME280;7717;47.792;12.076;2023-04-28T11:51:43;95984.44;;;12.96;100.00
15229;BME280;7717;47.792;12.076;2023-04-28T11:54:19;95985.81;;;12.65;100.00
15229;BME280;7717;47.792;12.076;2023-04-28T11:56:45;95985.81;;;12.66;100.00
15229;BME280;7717;47.792;12.076;2023-04-28T11:59:11;95978.78;;;12.76;100.00
15229;BME280;7717;47.792;12.076;2023-04-28T12:01:50;95987.16;;;12.87;100.00
15229;BME280;7717;47.792;12.076;2023-04-28T12:09:24;95984.53;;;12.90;100.00
15229;BME280;7717;47.792;12.076;2023-04-28T12:11:58;95973.13;;;13.07;100.00
15229;BME280;7717;47.792;12.076;2023-04-28T12:14:24;95975.44;;;13.67;100.00
15229;BME280;7717;47.792;12.076;2023-04-28T12:16:50;95970.47;;;14.39;100.00
15229;BME280;7717;47.792;12.076;2023-04-28T12:19:17;95967.19;;;14.69;100.00
15229;BME280;7717;47.792;12.076;2023-04-28T12:22:05;54815.75;;;-147.18;100.00
15229;BME280;7717;47.792;12.076;2023-04-28T12:24:32;54815.75;;;-147.18;100.00
15229;BME280;7717;47.792;12.076;2023-04-28T12:27:15;54815.75;;;-147.18;100.00
15229;BME280;7717;47.792;12.076;2023-04-28T12:29:42;54815.75;;;-147.18;100.00
15229;BME280;7717;47.792;12.076;2023-04-28T12:32:09;54815.75;;;-147.18;100.00
15229;BME280;7717;47.792;12.076;2023-04-28T12:34:36;54815.75;;;-147.18;100.00
15229;BME280;7717;47.792;12.076;2023-04-28T12:37:02;54815.75;;;-147.18;100.00
15229;BME280;7717;47.792;12.076;2023-04-28T12:39:34;54815.75;;;-147.18;100.00
15229;BME280;7717;47.792;12.076;2023-04-28T12:42:00;54815.75;;;-147.18;100.00
15229;BME280;7717;47.792;12.076;2023-04-28T12:44:27;54815.75;;;-147.18;100.00
15229;BME280;7717;47.792;12.076;2023-04-28T12:46:57;54815.75;;;-147.18;100.00
15229;BME280;7717;47.792;12.076;2023-04-28T12:49:23;54815.75;;;-147.18;100.00
15229;BME280;7717;47.792;12.076;2023-04-28T12:51:48;54815.75;;;-147.18;100.00
15229;BME280;7717;47.792;12.076;2023-04-28T12:54:13;54815.75;;;-147.18;100.00
15229;BME280;7717;47.792;12.076;2023-04-28T12:56:39;54815.75;;;-147.18;100.00
15229;BME280;7717;47.792;12.076;2023-04-28T12:59:04;54815.75;;;-147.18;100.00
15229;BME280;7717;47.792;12.076;2023-04-28T13:01:30;54815.75;;;-147.18;100.00
15229;BME280;7717;47.792;12.076;2023-04-28T13:03:55;54815.75;;;-147.18;100.00
15229;BME280;7717;47.792;12.076;2023-04-28T13:06:21;54815.75;;;-147.18;100.00
15229;BME280;7717;47.792;12.076;2023-04-28T13:08:46;54815.75;;;-147.18;100.00
15229;BME280;7717;47.792;12.076;2023-04-28T13:11:11;54815.75;;;-147.18;100.00
15229;BME280;7717;47.792;12.076;2023-04-28T13:13:37;54815.75;;;-147.18;100.00
15229;BME280;7717;47.792;12.076;2023-04-28T13:16:03;54815.75;;;-147.18;100.00
15229;BME280;7717;47.792;12.076;2023-04-28T13:18:29;54815.75;;;-147.18;100.00
15229;BME280;7717;47.792;12.076;2023-04-28T13:20:54;54815.75;;;-147.18;100.00
15229;BME280;7717;47.792;12.076;2023-04-28T13:23:20;54815.75;;;-147.18;100.00
15229;BME280;7717;47.792;12.076;2023-04-28T13:25:45;54815.75;;;-147.18;100.00
15229;BME280;7717;47.792;12.076;2023-04-28T13:28:11;54815.75;;;-147.18;100.00
15229;BME280;7717;47.792;12.076;2023-04-28T13:30:37;54815.75;;;-147.18;100.00
15229;BME280;7717;47.792;12.076;2023-04-28T13:33:03;54815.75;;;-147.18;100.00